Progreso Lakes, Texas
Current Conditions -  °F | °C
As of 5:15 PM on Monday 22 Dec 2014 (Local Time) from KT65 Reporting Station
Clear Clear  
Wind Chill: 77°   Ceiling: Unl
Heat Index: 79°   Visibility: 10mi
Dew Point: 62°   Wind: 3mph
Humidity: 59%   Direction: 200°SSW
Pressure: 29.62"   Gusts: NA
Location:  26.1701°N, 97.9943°W
Report Text: KT65 222315Z AUTO 20003KT 10SM CLR 25/17 A2962 RMK AO2 T02510166
Loading
Personal Weather Stations






























Interactive Weather Map New forecast layout! Learn more

10-Day Weather Forecast

Advertisements
Track Severe Weather on mobile